»·PEaware :: DFGCW KCPR-KDEN

DFGCW :: KCPR-KDEN

FLIGHT INFORMATION

Flight Status: Arrived
Operator: Unknown
More flights by this operator :: More flights under this callsign
Pilot: Klaus A. (15485)
Aircraft: PILATUS PC-12 EAGLE
(PC12)
More flights by this aircraft type
Origin: KCPR Natrona Co Intl
United States
Destination: KDEN Denver Intl
United States
More flights between these airports :: More routes between these airports
Route: +CPR3 DDY LAR RAMMS7
File this flight plan on PilotEdge
Remarks:
Altitude:
(Current/Filed)
27,000ft
Speed:
(Current/Filed)
230kts
Departed: 30-Dec-18 09:15 AM
Arrived: 30-Dec-18 10:13 AM
Distance/Time
Traveled:
201nm/0:57
Distance/Time
To Go:
Arrived

Flight Plot

Page will automatically refresh every two minutes.

Flight plan parsing failed; only flown route is shown


Map Options




Map Legend


Flown Route
Filed Route
Departure Airport
Arrival Airport
Navaid (VOR, NDB)
Fix

Horizontal Profiles

Position Reports

Time Latitude Longitude Heading Altitude Ground
Speed
30-Dec-18 08:48 42.904240 -106.456523 134 5353ft 0kts
30-Dec-18 08:49 42.904240 -106.456523 134 5353ft 0kts
30-Dec-18 08:50 42.904240 -106.456523 134 5353ft 0kts
30-Dec-18 08:51 42.904240 -106.456523 134 5353ft 0kts
30-Dec-18 08:52 42.904240 -106.456523 134 5353ft 0kts
30-Dec-18 08:54 42.904240 -106.456523 134 5353ft 0kts
30-Dec-18 08:55 42.904240 -106.456523 134 5353ft 0kts
30-Dec-18 08:56 42.904240 -106.456523 134 5353ft 0kts
30-Dec-18 08:57 42.904240 -106.456523 134 5353ft 0kts
30-Dec-18 08:58 42.904240 -106.456523 134 5353ft 0kts
30-Dec-18 08:59 42.904240 -106.456523 134 5353ft 0kts
30-Dec-18 09:00 42.904240 -106.456523 134 5353ft 0kts
30-Dec-18 09:01 42.904240 -106.456523 134 5353ft 0kts
30-Dec-18 09:02 42.904240 -106.456523 134 5353ft 0kts
30-Dec-18 09:03 42.904240 -106.456523 134 5353ft 0kts
30-Dec-18 09:04 42.904240 -106.456523 134 5353ft 0kts
30-Dec-18 09:05 42.904240 -106.456523 134 5353ft 0kts
30-Dec-18 09:06 42.904239 -106.456522 136 5353ft 0kts
30-Dec-18 09:07 42.904296 -106.457185 299 5352ft 13kts
30-Dec-18 09:08 42.906512 -106.455215 42 5352ft 13kts
30-Dec-18 09:09 42.908507 -106.452625 43 5352ft 19kts
30-Dec-18 09:10 42.912674 -106.448148 307 5353ft 0kts
30-Dec-18 09:11 42.912674 -106.448149 306 5353ft 0kts
30-Dec-18 09:11 42.912674 -106.448149 306 5353ft 0kts
30-Dec-18 09:13 42.912683 -106.448162 285 5353ft 0kts
30-Dec-18 09:14 42.912999 -106.449519 226 5353ft 0kts
30-Dec-18 09:15 42.900324 -106.464875 222 6119ft 109kts
30-Dec-18 09:16 42.871576 -106.492982 221 7874ft 143kts
30-Dec-18 09:17 42.836557 -106.521122 219 9705ft 153kts
30-Dec-18 09:17 42.804975 -106.544512 219 11055ft 157kts
30-Dec-18 09:19 42.760198 -106.578820 219 12716ft 161kts
30-Dec-18 09:19 42.728125 -106.603660 219 13947ft 158kts
30-Dec-18 09:21 42.672793 -106.591810 177 15468ft 183kts
30-Dec-18 09:21 42.631681 -106.577934 167 16484ft 191kts
30-Dec-18 09:22 42.583773 -106.546228 166 17621ft 194kts
30-Dec-18 09:23 42.535586 -106.513613 167 18670ft 195kts
30-Dec-18 09:24 42.486911 -106.480735 168 19784ft 196kts
30-Dec-18 09:25 42.438129 -106.447852 168 20854ft 197kts
30-Dec-18 09:26 42.389211 -106.414935 169 21837ft 199kts
30-Dec-18 09:27 42.340190 -106.382006 170 22751ft 199kts
30-Dec-18 09:28 42.290523 -106.348704 170 23616ft 200kts
30-Dec-18 09:29 42.240141 -106.315066 169 24447ft 204kts
30-Dec-18 09:30 42.188826 -106.280753 168 25197ft 209kts
30-Dec-18 09:31 42.136399 -106.245767 167 25903ft 211kts
30-Dec-18 09:32 42.086352 -106.212436 166 26518ft 214kts
30-Dec-18 09:33 42.031546 -106.176092 165 26803ft 231kts
30-Dec-18 09:34 41.971506 -106.136239 165 26801ft 249kts
30-Dec-18 09:35 41.908258 -106.094346 164 26791ft 258kts
30-Dec-18 09:36 41.845320 -106.052759 164 26799ft 262kts
30-Dec-18 09:37 41.779661 -106.009496 164 26798ft 265kts
30-Dec-18 09:38 41.713398 -105.966048 162 26804ft 266kts
30-Dec-18 09:39 41.647270 -105.922571 162 26816ft 267kts
30-Dec-18 09:40 41.580589 -105.878949 162 26817ft 268kts
30-Dec-18 09:41 41.513764 -105.835290 162 26818ft 268kts
30-Dec-18 09:42 41.446773 -105.791678 162 26818ft 268kts
30-Dec-18 09:43 41.379944 -105.748257 162 26818ft 268kts
30-Dec-18 09:44 41.311905 -105.711739 172 26809ft 261kts
30-Dec-18 09:45 41.242171 -105.686332 172 26819ft 260kts
30-Dec-18 09:46 41.171994 -105.660988 171 26812ft 263kts
30-Dec-18 09:47 41.101482 -105.635575 171 26819ft 264kts
30-Dec-18 09:48 41.030696 -105.610134 171 26818ft 264kts
30-Dec-18 09:49 40.959323 -105.584571 171 26353ft 272kts
30-Dec-18 09:50 40.889706 -105.559629 171 25116ft 267kts
30-Dec-18 09:51 40.820194 -105.534804 171 23825ft 253kts
30-Dec-18 09:52 40.754017 -105.509129 151 22519ft 255kts
30-Dec-18 09:53 40.698223 -105.452148 145 21260ft 253kts
30-Dec-18 09:54 40.643355 -105.394820 144 19977ft 251kts
30-Dec-18 09:55 40.589980 -105.339133 144 18714ft 249kts
30-Dec-18 09:56 40.535871 -105.282767 144 17407ft 248kts
30-Dec-18 09:57 40.484320 -105.229177 145 16622ft 232kts
30-Dec-18 09:58 40.432587 -105.175633 144 15332ft 240kts
30-Dec-18 09:59 40.382587 -105.123904 144 14106ft 240kts
30-Dec-18 10:00 40.335242 -105.074914 144 13997ft 201kts
30-Dec-18 10:01 40.290432 -105.028784 145 14025ft 207kts
30-Dec-18 10:02 40.244930 -104.981988 144 14021ft 205kts
30-Dec-18 10:03 40.201344 -104.937203 143 13997ft 195kts
30-Dec-18 10:04 40.157580 -104.892334 143 13339ft 209kts
30-Dec-18 10:05 40.110676 -104.844303 144 12153ft 219kts
30-Dec-18 10:06 40.079552 -104.782120 77 10976ft 226kts
30-Dec-18 10:07 40.090818 -104.700571 81 9795ft 230kts
30-Dec-18 10:08 40.045951 -104.653849 194 8595ft 217kts
30-Dec-18 10:09 39.986028 -104.658589 183 7419ft 215kts
30-Dec-18 10:10 39.931142 -104.659365 182 6833ft 186kts
30-Dec-18 10:11 39.883470 -104.659761 182 5959ft 158kts
30-Dec-18 10:12 39.852911 -104.660228 178 5440ft 36kts
30-Dec-18 10:13 39.846699 -104.660304 180 5439ft 30kts
30-Dec-18 10:14 39.840282 -104.661823 234 5439ft 0kts
30-Dec-18 10:15 39.839771 -104.663681 184 5440ft 13kts
30-Dec-18 10:16 39.839524 -104.664924 266 5439ft 0kts
30-Dec-18 10:17 39.839524 -104.664924 267 5439ft 0kts
30-Dec-18 10:18 39.839524 -104.664924 267 5439ft 0kts
30-Dec-18 10:19 39.839524 -104.664924 267 5439ft 0kts
30-Dec-18 10:20 39.839524 -104.664924 267 5439ft 0kts
30-Dec-18 10:21 39.839524 -104.664924 267 5439ft 0kts
30-Dec-18 10:22 39.839524 -104.664924 267 5439ft 0kts
30-Dec-18 10:23 39.839524 -104.664924 267 5439ft 0kts

Navigation Log

Ident Type
Flight plan parsing failed, navigation log unavailable